createdAt,value
2022-12-19T00:00:50.323Z,23.20
2022-12-19T00:05:54.505Z,22.60
2022-12-19T00:08:22.194Z,21.80
2022-12-19T00:10:59.485Z,20.80
2022-12-19T00:13:33.646Z,22.20
2022-12-19T00:16:13.563Z,24.60
2022-12-19T00:18:43.032Z,23.70
2022-12-19T00:21:13.316Z,24.40
2022-12-19T00:23:41.369Z,24.30
2022-12-19T00:26:12.898Z,25.30
2022-12-19T00:28:43.117Z,26.30
2022-12-19T00:31:11.805Z,24.00
2022-12-19T00:33:43.294Z,21.60
2022-12-19T00:36:20.967Z,18.10
2022-12-19T00:38:53.324Z,14.90
2022-12-19T00:41:25.539Z,15.10
2022-12-19T00:43:57.058Z,15.90
2022-12-19T00:46:26.033Z,16.50
2022-12-19T00:48:54.571Z,14.70
2022-12-19T00:51:25.046Z,15.40
2022-12-19T00:53:55.305Z,15.20
2022-12-19T00:56:59.931Z,17.00
2022-12-19T00:59:29.889Z,16.00
2022-12-19T01:02:03.125Z,16.20
2022-12-19T01:04:35.662Z,18.50
2022-12-19T01:07:12.226Z,22.30
2022-12-19T01:09:40.131Z,15.90
2022-12-19T01:12:26.992Z,15.90
2022-12-19T01:14:57.725Z,15.20
2022-12-19T01:17:43.616Z,15.60
2022-12-19T01:20:16.453Z,15.60
2022-12-19T01:22:45.590Z,21.60
2022-12-19T01:25:15.152Z,19.10
2022-12-19T01:27:43.008Z,15.90
2022-12-19T01:30:11.698Z,18.70
2022-12-19T01:32:40.818Z,18.20
2022-12-19T01:35:09.957Z,19.00
2022-12-19T01:37:51.169Z,15.80
2022-12-19T01:40:21.397Z,15.90
2022-12-19T01:42:50.138Z,16.30
2022-12-19T01:45:31.843Z,18.70
2022-12-19T01:48:13.940Z,18.80
2022-12-19T01:51:01.016Z,18.10
2022-12-19T01:53:48.816Z,17.40
2022-12-19T01:56:24.635Z,18.40
2022-12-19T01:59:06.000Z,17.60
2022-12-19T02:01:51.079Z,18.30
2022-12-19T02:04:20.369Z,16.90
2022-12-19T02:06:49.007Z,18.00
2022-12-19T02:09:17.700Z,16.30
2022-12-19T02:11:48.633Z,16.60
2022-12-19T02:14:16.809Z,16.40
2022-12-19T02:17:11.027Z,16.80
2022-12-19T02:20:11.517Z,15.30
2022-12-19T02:23:01.435Z,15.60
2022-12-19T02:25:51.258Z,17.60
2022-12-19T02:29:01.419Z,17.00
2022-12-19T02:36:05.808Z,16.60
2022-12-19T02:39:29.712Z,18.00
2022-12-19T02:42:32.081Z,18.00
2022-12-19T02:45:28.931Z,18.30
2022-12-19T02:48:38.823Z,18.20
2022-12-19T02:51:08.527Z,20.50
2022-12-19T02:54:29.985Z,17.90
2022-12-19T02:57:55.244Z,20.60
2022-12-19T03:00:28.747Z,21.80
2022-12-19T03:03:50.381Z,22.40
2022-12-19T03:06:56.087Z,16.60
2022-12-19T03:16:23.147Z,17.20
2022-12-19T03:18:59.755Z,18.00
2022-12-19T03:39:34.572Z,15.20
2022-12-19T03:42:11.482Z,18.30
2022-12-19T03:45:10.352Z,17.40
2022-12-19T03:47:51.077Z,16.90
2022-12-19T03:50:55.182Z,20.70
2022-12-19T03:53:54.988Z,20.10
2022-12-19T04:00:13.238Z,17.70
2022-12-19T04:03:32.030Z,17.90
2022-12-19T04:06:12.403Z,17.50
2022-12-19T04:09:16.768Z,18.90
2022-12-19T04:15:42.596Z,19.00
2022-12-19T04:24:15.631Z,18.50
2022-12-19T04:26:37.563Z,20.00
2022-12-19T04:29:38.532Z,18.40
2022-12-19T04:32:25.619Z,17.90
2022-12-19T04:38:36.588Z,21.30
2022-12-19T04:41:04.671Z,20.20
2022-12-19T04:43:32.434Z,19.40
2022-12-19T04:46:00.446Z,20.30
2022-12-19T04:48:28.465Z,19.20
2022-12-19T04:50:56.680Z,21.00
2022-12-19T04:53:24.506Z,20.50
2022-12-19T04:56:00.790Z,19.50
2022-12-19T04:58:29.529Z,19.80
2022-12-19T05:01:03.089Z,21.70
2022-12-19T05:03:30.979Z,19.70
2022-12-19T05:06:13.900Z,20.20
2022-12-19T05:08:42.953Z,19.70
2022-12-19T05:11:17.520Z,19.10
2022-12-19T05:13:50.020Z,18.60
2022-12-19T05:16:18.554Z,17.00
2022-12-19T05:18:46.584Z,16.20
2022-12-19T05:21:14.490Z,18.00
2022-12-19T05:23:42.755Z,24.40
2022-12-19T05:26:11.963Z,28.80
2022-12-19T05:28:39.880Z,17.90
2022-12-19T05:31:12.316Z,18.60
2022-12-19T05:33:41.795Z,18.30
2022-12-19T05:36:10.958Z,18.80
2022-12-19T05:38:38.798Z,18.80
2022-12-19T05:41:09.059Z,17.70
2022-12-19T05:43:37.308Z,16.40
2022-12-19T05:46:07.068Z,17.80
2022-12-19T05:48:36.610Z,17.80
2022-12-19T05:51:05.125Z,18.20
2022-12-19T05:53:36.572Z,21.90
2022-12-19T05:56:08.701Z,22.10
2022-12-19T05:58:37.317Z,18.30
2022-12-19T06:01:09.246Z,16.90
2022-12-19T06:03:37.510Z,15.70
2022-12-19T06:06:09.586Z,18.30
2022-12-19T06:08:37.608Z,14.40
2022-12-19T06:11:07.336Z,17.00
2022-12-19T06:13:36.613Z,19.00
2022-12-19T06:16:07.738Z,17.00
2022-12-19T06:18:40.428Z,17.50
2022-12-19T06:21:14.595Z,18.70
2022-12-19T06:23:43.401Z,19.30
2022-12-19T06:26:18.520Z,18.60
2022-12-19T06:28:48.998Z,19.00
2022-12-19T06:31:17.973Z,17.60
2022-12-19T06:33:46.005Z,19.10
2022-12-19T06:36:20.004Z,20.80
2022-12-19T06:38:48.595Z,24.90
2022-12-19T06:41:27.645Z,20.30
2022-12-19T06:44:04.964Z,22.00
2022-12-19T06:46:33.176Z,21.00
2022-12-19T06:49:01.374Z,18.90
2022-12-19T06:51:29.761Z,18.10
2022-12-19T06:53:57.729Z,19.70
2022-12-19T06:56:25.775Z,21.00
2022-12-19T06:58:56.668Z,23.80
2022-12-19T07:01:41.200Z,30.20
2022-12-19T07:04:11.503Z,25.10
2022-12-19T07:06:42.345Z,27.20
2022-12-19T07:09:12.573Z,24.10
2022-12-19T07:11:41.071Z,24.30
2022-12-19T07:14:08.824Z,27.10
2022-12-19T07:16:43.183Z,72.00
2022-12-19T07:20:07.296Z,50.20
2022-12-19T07:27:39.224Z,30.00
2022-12-19T07:30:13.013Z,27.60
2022-12-19T07:32:43.828Z,29.40
2022-12-19T07:35:25.728Z,28.50
2022-12-19T07:38:02.587Z,29.50
2022-12-19T07:40:30.571Z,27.90
2022-12-19T07:43:00.949Z,28.40
2022-12-19T07:45:32.758Z,28.70
2022-12-19T07:48:04.811Z,29.10
2022-12-19T07:50:40.686Z,29.50
2022-12-19T07:53:10.675Z,28.90
2022-12-19T07:55:38.637Z,30.70
2022-12-19T07:58:06.546Z,30.60
2022-12-19T08:00:35.793Z,31.30
2022-12-19T08:03:04.400Z,30.90
2022-12-19T08:05:34.901Z,30.40
2022-12-19T08:08:03.313Z,31.30
2022-12-19T08:10:31.184Z,32.80
2022-12-19T08:12:59.020Z,32.50
2022-12-19T08:15:27.476Z,33.40
2022-12-19T08:17:55.905Z,31.40
2022-12-19T08:20:23.742Z,32.60
2022-12-19T08:22:51.604Z,31.40
2022-12-19T08:25:19.495Z,31.10
2022-12-19T08:27:47.249Z,31.70
2022-12-19T08:30:15.271Z,31.00
2022-12-19T08:32:45.259Z,30.30
2022-12-19T08:35:13.312Z,29.90
2022-12-19T08:37:41.375Z,30.00
2022-12-19T08:40:11.349Z,30.30
2022-12-19T08:42:39.177Z,29.80
2022-12-19T08:45:09.413Z,31.40
2022-12-19T08:47:37.278Z,31.00
2022-12-19T08:50:05.599Z,28.20
2022-12-19T08:52:35.733Z,26.50
2022-12-19T08:55:04.685Z,26.90
2022-12-19T08:57:31.592Z,22.90
2022-12-19T08:59:59.423Z,25.20
2022-12-19T09:02:28.473Z,21.90
2022-12-19T09:05:58.291Z,21.70
2022-12-19T09:07:44.698Z,23.70
2022-12-19T09:10:12.504Z,26.00
2022-12-19T09:12:40.356Z,25.10
2022-12-19T09:15:08.609Z,26.50
2022-12-19T09:17:37.050Z,25.60
2022-12-19T09:20:05.656Z,30.30
2022-12-19T09:22:33.585Z,27.90
2022-12-19T09:25:01.353Z,23.70
2022-12-19T09:27:29.196Z,24.00
2022-12-19T09:29:57.091Z,21.50
2022-12-19T09:32:24.949Z,22.40
2022-12-19T09:34:52.738Z,17.70
2022-12-19T09:37:20.715Z,19.60
2022-12-19T09:39:50.552Z,20.60
2022-12-19T09:42:50.131Z,19.80
2022-12-19T09:45:38.594Z,17.70
2022-12-19T09:48:22.465Z,18.90
2022-12-19T09:51:09.521Z,18.10
2022-12-19T09:53:58.600Z,18.20
2022-12-19T09:56:45.146Z,17.50
2022-12-19T09:59:34.259Z,21.30
2022-12-19T10:02:33.812Z,18.20
2022-12-19T10:05:14.304Z,18.80
2022-12-19T10:08:09.446Z,15.90
2022-12-19T10:12:36.267Z,15.20
2022-12-19T10:14:11.100Z,19.60
2022-12-19T10:17:23.560Z,18.80
2022-12-19T10:20:13.384Z,18.40
2022-12-19T10:23:19.653Z,16.80
2022-12-19T10:26:06.425Z,15.40
2022-12-19T10:29:01.253Z,17.40
2022-12-19T10:31:57.543Z,16.50
2022-12-19T10:34:38.495Z,17.20
2022-12-19T10:37:29.629Z,14.10
2022-12-19T10:40:27.978Z,13.80
2022-12-19T10:43:21.629Z,14.10
2022-12-19T10:46:02.949Z,14.50
2022-12-19T10:48:31.901Z,15.20
2022-12-19T10:51:06.078Z,19.10
2022-12-19T10:53:34.545Z,17.40
2022-12-19T10:56:16.133Z,17.20
2022-12-19T10:58:46.292Z,15.60
2022-12-19T11:01:31.911Z,11.60
2022-12-19T11:04:30.251Z,12.60
2022-12-19T11:07:18.943Z,11.40
2022-12-19T11:09:53.782Z,12.90
2022-12-19T11:15:25.651Z,17.00
2022-12-19T11:16:22.940Z,15.60
2022-12-19T11:26:32.509Z,16.60
2022-12-19T11:29:44.346Z,15.50
2022-12-19T11:30:37.983Z,17.40
2022-12-19T11:30:47.266Z,17.40
2022-12-19T11:33:18.883Z,18.80
2022-12-19T11:35:55.086Z,20.00
2022-12-19T11:38:42.149Z,19.70
2022-12-19T11:41:17.299Z,17.80
2022-12-19T11:43:59.043Z,18.50
2022-12-19T11:46:40.598Z,17.40
2022-12-19T11:49:27.103Z,14.60
2022-12-19T11:55:02.001Z,11.30
2022-12-19T11:57:30.119Z,12.30
2022-12-19T12:00:05.475Z,12.20
2022-12-19T12:03:06.197Z,11.70
2022-12-19T12:06:26.653Z,11.50
2022-12-19T12:11:47.622Z,11.80
2022-12-19T12:18:53.376Z,12.00
2022-12-19T12:23:27.186Z,12.80
2022-12-19T12:31:15.426Z,12.20
2022-12-19T12:31:55.169Z,12.30
2022-12-19T12:32:05.068Z,11.70
2022-12-19T12:35:38.190Z,11.90
2022-12-19T12:35:51.084Z,11.50
2022-12-19T12:38:22.999Z,12.60
2022-12-19T12:41:21.647Z,12.60
2022-12-19T12:44:08.541Z,11.80
2022-12-19T12:47:01.553Z,13.30
2022-12-19T12:49:45.320Z,14.10
2022-12-19T12:52:18.736Z,14.30
2022-12-19T12:54:55.390Z,14.80
2022-12-19T12:57:36.865Z,13.40
2022-12-19T13:00:22.297Z,13.60
2022-12-19T13:03:09.899Z,15.60
2022-12-19T13:06:33.172Z,15.50
2022-12-19T13:09:28.515Z,15.70
2022-12-19T13:12:19.638Z,14.70
2022-12-19T13:15:17.055Z,13.50
2022-12-19T13:19:28.273Z,11.60
2022-12-19T13:22:26.433Z,13.90
2022-12-19T13:25:29.400Z,12.30
2022-12-19T13:28:59.981Z,13.60
2022-12-19T13:32:23.318Z,14.10
2022-12-19T13:39:51.037Z,13.80
2022-12-19T13:45:15.110Z,14.60
2022-12-19T13:48:04.187Z,14.50
2022-12-19T13:51:54.482Z,15.70
2022-12-19T13:57:09.280Z,15.00
2022-12-19T14:00:18.056Z,14.40
2022-12-19T14:03:37.838Z,14.80
2022-12-19T14:07:51.706Z,14.80
2022-12-19T14:11:35.089Z,16.90
2022-12-19T14:14:28.093Z,17.50
2022-12-19T14:17:42.393Z,17.50
2022-12-19T14:22:01.868Z,18.40
2022-12-19T14:23:44.256Z,16.60
2022-12-19T14:28:17.936Z,17.80
2022-12-19T14:30:26.129Z,17.80
2022-12-19T14:33:44.055Z,18.10
2022-12-19T14:36:06.874Z,18.40
2022-12-19T14:39:36.685Z,15.10
2022-12-19T14:43:57.044Z,16.60
2022-12-19T14:54:05.913Z,18.00
2022-12-19T14:54:33.979Z,16.50
2022-12-19T14:57:03.806Z,14.50
2022-12-19T14:59:48.031Z,14.50
2022-12-19T15:02:34.359Z,15.40
2022-12-19T15:05:36.497Z,15.00
2022-12-19T15:08:17.252Z,16.30
2022-12-19T15:11:34.891Z,17.40
2022-12-19T15:14:54.786Z,16.90
2022-12-19T15:17:44.372Z,18.50
2022-12-19T15:20:29.375Z,18.80
2022-12-19T15:23:04.839Z,22.60
2022-12-19T15:26:07.688Z,20.20
2022-12-19T15:28:41.923Z,19.60
2022-12-19T15:31:38.572Z,20.80
2022-12-19T15:34:38.374Z,22.20
2022-12-19T15:37:23.245Z,19.50
2022-12-19T15:39:55.404Z,19.90
2022-12-19T15:43:29.959Z,21.50
2022-12-19T15:46:16.671Z,21.70
2022-12-19T15:50:18.351Z,23.70
2022-12-19T15:57:09.627Z,20.00
2022-12-19T16:06:30.135Z,20.90
2022-12-19T16:08:58.513Z,21.70
2022-12-19T16:11:26.344Z,21.70
2022-12-19T16:13:57.983Z,22.80
2022-12-19T16:16:25.827Z,23.70
2022-12-19T16:18:53.712Z,26.60
2022-12-19T16:21:31.542Z,26.10
2022-12-19T16:24:01.702Z,24.70
2022-12-19T16:26:40.331Z,25.20
2022-12-19T16:29:20.335Z,24.90
2022-12-19T16:31:48.725Z,26.10
2022-12-19T16:34:19.589Z,24.40
2022-12-19T16:36:47.924Z,23.70
2022-12-19T16:39:16.459Z,24.90
2022-12-19T16:41:45.430Z,25.20
2022-12-19T16:44:19.927Z,24.70
2022-12-19T16:46:51.270Z,24.40
2022-12-19T16:49:23.505Z,23.50
2022-12-19T16:51:52.107Z,23.70
2022-12-19T16:54:20.196Z,22.20
2022-12-19T16:56:51.608Z,24.50
2022-12-19T16:59:25.718Z,25.10
2022-12-19T17:01:54.135Z,23.80
2022-12-19T17:04:24.528Z,27.80
2022-12-19T17:06:54.254Z,27.40
2022-12-19T17:09:24.494Z,28.60
2022-12-19T17:11:58.016Z,28.90
2022-12-19T17:14:29.631Z,27.10
2022-12-19T17:16:59.465Z,28.30
2022-12-19T17:19:35.928Z,25.40
2022-12-19T17:24:31.494Z,24.00
2022-12-19T17:26:59.199Z,23.10
2022-12-19T17:29:26.963Z,23.00
2022-12-19T17:31:55.301Z,22.30
2022-12-19T17:34:30.356Z,17.60
2022-12-19T17:37:00.548Z,12.20
2022-12-19T17:39:31.974Z,16.20
2022-12-19T17:42:06.795Z,15.70
2022-12-19T17:44:34.512Z,14.40
2022-12-19T17:47:02.386Z,11.00
2022-12-19T17:49:31.649Z,11.50
2022-12-19T17:52:00.257Z,9.60
2022-12-19T17:54:27.972Z,8.90
2022-12-19T17:56:55.861Z,9.90
2022-12-19T17:59:23.618Z,10.70
2022-12-19T18:01:51.717Z,12.10
2022-12-19T18:04:21.573Z,10.90
2022-12-19T18:06:49.564Z,10.70
2022-12-19T18:09:20.395Z,13.50
2022-12-19T18:11:49.593Z,10.60
2022-12-19T18:14:18.391Z,10.10
2022-12-19T18:16:49.134Z,11.50
2022-12-19T18:19:23.450Z,12.60
2022-12-19T18:21:51.915Z,11.90
2022-12-19T18:24:19.754Z,12.90
2022-12-19T18:26:47.827Z,12.50
2022-12-19T18:29:16.607Z,13.60
2022-12-19T18:31:50.469Z,25.50
2022-12-19T18:34:22.955Z,31.10
2022-12-19T18:36:51.867Z,29.40
2022-12-19T18:39:29.105Z,28.80
2022-12-19T18:41:56.862Z,25.90
2022-12-19T18:44:24.661Z,32.60
2022-12-19T18:46:52.971Z,17.00
2022-12-19T18:49:20.964Z,15.30
2022-12-19T18:51:48.779Z,16.70
2022-12-19T18:54:20.084Z,18.00
2022-12-19T18:56:48.432Z,16.50
2022-12-19T18:59:16.200Z,15.50
2022-12-19T19:01:47.837Z,15.90
2022-12-19T19:04:17.770Z,15.50
2022-12-19T19:06:51.706Z,16.10
2022-12-19T19:09:21.358Z,16.60
2022-12-19T19:12:09.113Z,17.50
2022-12-19T19:14:36.944Z,19.60
2022-12-19T19:17:06.409Z,16.70
2022-12-19T19:19:34.253Z,16.30
2022-12-19T19:22:02.120Z,15.70
2022-12-19T19:24:30.080Z,17.40
2022-12-19T19:26:57.850Z,15.60
2022-12-19T19:29:26.114Z,15.20
2022-12-19T19:31:53.971Z,15.40
2022-12-19T19:34:27.439Z,12.20
2022-12-19T19:36:59.115Z,14.40
2022-12-19T19:39:28.529Z,14.00
2022-12-19T19:41:56.446Z,14.10
2022-12-19T19:44:24.273Z,14.50
2022-12-19T19:46:52.102Z,14.80
2022-12-19T19:49:20.862Z,13.10
2022-12-19T19:51:48.649Z,13.00
2022-12-19T19:54:16.599Z,12.10
2022-12-19T19:56:44.298Z,11.40
2022-12-19T19:59:12.149Z,12.10
2022-12-19T20:01:40.229Z,10.80
2022-12-19T20:04:08.109Z,11.40
2022-12-19T20:06:36.211Z,10.20
2022-12-19T20:09:04.364Z,11.20
2022-12-19T20:11:32.271Z,12.20
2022-12-19T20:14:00.072Z,14.00
2022-12-19T20:16:28.195Z,17.60
2022-12-19T20:18:56.018Z,17.50
2022-12-19T20:21:24.721Z,24.60
2022-12-19T20:23:56.664Z,24.00
2022-12-19T20:26:24.522Z,26.30
2022-12-19T20:28:52.363Z,25.80
2022-12-19T20:31:23.150Z,23.30
2022-12-19T20:33:53.581Z,22.30
2022-12-19T20:36:22.625Z,23.40
2022-12-19T20:38:50.816Z,20.20
2022-12-19T20:41:19.421Z,21.60
2022-12-19T20:43:48.153Z,21.40
2022-12-19T20:46:18.477Z,18.90
2022-12-19T20:48:47.745Z,18.70
2022-12-19T20:51:16.727Z,17.80
2022-12-19T20:53:45.045Z,17.70
2022-12-19T20:56:17.619Z,16.20
2022-12-19T20:58:46.204Z,15.70
2022-12-19T21:01:18.305Z,17.80
2022-12-19T21:03:48.296Z,16.50
2022-12-19T21:06:19.803Z,16.80
2022-12-19T21:08:48.354Z,19.10
2022-12-19T21:11:16.236Z,19.90
2022-12-19T21:13:44.675Z,19.90
2022-12-19T21:16:16.448Z,19.90
2022-12-19T21:18:45.893Z,20.20
2022-12-19T21:21:18.099Z,18.50
2022-12-19T21:23:46.157Z,18.60
2022-12-19T21:26:14.147Z,18.80
2022-12-19T21:28:42.067Z,20.20
2022-12-19T21:31:25.049Z,19.20
2022-12-19T21:33:55.487Z,17.90
2022-12-19T21:36:25.089Z,14.20
2022-12-19T21:38:55.900Z,15.20
2022-12-19T21:41:24.119Z,16.60
2022-12-19T21:43:54.125Z,15.50
2022-12-19T21:46:26.513Z,17.80
2022-12-19T21:48:56.186Z,15.20
2022-12-19T21:51:27.988Z,15.30
2022-12-19T21:53:58.277Z,13.70
2022-12-19T21:56:31.986Z,11.70
2022-12-19T21:59:03.209Z,10.90
2022-12-19T22:01:32.724Z,10.50
2022-12-19T22:04:03.474Z,10.00
2022-12-19T22:06:33.747Z,10.50
2022-12-19T22:09:02.749Z,10.40
2022-12-19T22:11:31.349Z,10.60
2022-12-19T22:14:01.015Z,10.30
2022-12-19T22:16:29.264Z,8.90
2022-12-19T22:18:57.443Z,10.00
2022-12-19T22:21:25.728Z,9.00
2022-12-19T22:23:58.364Z,8.10
2022-12-19T22:26:28.827Z,9.20
2022-12-19T22:28:57.893Z,9.30
2022-12-19T22:31:34.607Z,24.80
2022-12-19T22:34:05.777Z,19.90
2022-12-19T22:36:35.954Z,18.50
2022-12-19T22:39:09.034Z,26.50
2022-12-19T22:41:38.280Z,27.40
2022-12-19T22:44:06.779Z,26.50
2022-12-19T22:46:37.044Z,28.80
2022-12-19T22:49:07.328Z,28.30
2022-12-19T22:51:36.963Z,27.80
2022-12-19T22:54:05.800Z,28.20
2022-12-19T22:56:34.699Z,30.40
2022-12-19T22:59:06.144Z,28.50
2022-12-19T23:01:38.125Z,25.90
2022-12-19T23:04:08.199Z,29.60
2022-12-19T23:06:37.674Z,25.70
2022-12-19T23:09:08.508Z,26.80
2022-12-19T23:11:39.012Z,27.80
2022-12-19T23:14:10.050Z,29.50
2022-12-19T23:16:37.969Z,29.90
2022-12-19T23:19:06.634Z,30.80
2022-12-19T23:21:35.269Z,30.70
2022-12-19T23:24:03.432Z,27.80
2022-12-19T23:26:35.589Z,30.50
2022-12-19T23:29:07.353Z,27.50
2022-12-19T23:31:38.629Z,24.70
2022-12-19T23:34:06.482Z,27.00
2022-12-19T23:39:22.293Z,18.40
2022-12-19T23:41:50.165Z,30.30
2022-12-19T23:44:18.168Z,41.70
2022-12-19T23:46:46.039Z,29.80
2022-12-19T23:49:14.218Z,28.90
2022-12-19T23:51:42.089Z,29.70
2022-12-19T23:54:10.047Z,28.70
2022-12-19T23:56:37.886Z,32.90
2022-12-19T23:59:05.872Z,31.50
